Time;durP1;ratioP1;P1;durP2;ratioP2;P2;SDS_P1;SDS_P2;PMS_P1;PMS_P2;Temp;Humidity;BMP_temperature;BMP_pressure;BME280_temperature;BME280_humidity;BME280_pressure;Samples;Min_cycle;Max_cycle;Signal;HPM_P1;HPM_P2
2024/02/29 00:02:06;;;;;;;23.52;11.93;;;;;;;10.67;59.58;101576.50;4953975;28;97699;-89
2024/02/29 00:04:34;;;;;;;25.00;11.82;;;;;;;10.69;59.51;101579.16;4969920;28;97484;-90
2024/02/29 00:07:00;;;;;;;28.15;13.27;;;;;;;10.69;59.66;101572.19;4945905;28;96689;-90
2024/02/29 00:09:28;;;;;;;21.88;11.05;;;;;;;10.69;59.55;101581.75;4930862;28;96879;-89
2024/02/29 00:11:54;;;;;;;25.83;12.77;;;;;;;10.69;59.47;101571.31;4953251;28;100646;-89
2024/02/29 00:14:20;;;;;;;22.23;13.25;;;;;;;10.69;59.42;101573.94;4953916;28;99934;-89
2024/02/29 00:16:45;;;;;;;23.00;11.15;;;;;;;10.70;59.50;101573.09;4954184;28;96818;-89
2024/02/29 00:19:12;;;;;;;22.65;13.23;;;;;;;10.70;59.50;101570.50;4953256;28;97016;-90
2024/02/29 00:21:40;;;;;;;24.83;12.55;;;;;;;10.70;59.48;101560.06;4935982;28;100689;-89
2024/02/29 00:24:05;;;;;;;25.05;11.20;;;;;;;10.71;59.17;101562.66;4952829;28;99079;-89
2024/02/29 00:26:31;;;;;;;23.27;11.10;;;;;;;10.72;59.49;101564.44;4937662;28;96755;-90
2024/02/29 00:28:56;;;;;;;24.05;12.30;;;;;;;10.73;59.38;101561.00;4955872;28;96846;-89
2024/02/29 00:31:22;;;;;;;25.27;10.93;;;;;;;10.73;59.30;101561.00;4939325;28;100316;-90
2024/02/29 00:33:48;;;;;;;23.77;12.50;;;;;;;10.72;59.29;101556.63;4944491;28;99684;-90
2024/02/29 00:36:15;;;;;;;26.42;12.88;;;;;;;10.71;59.25;101554.84;4937865;28;96924;-89
2024/02/29 00:38:40;;;;;;;21.95;12.38;;;;;;;10.71;59.19;101549.63;4950515;28;96874;-89
2024/02/29 00:41:07;;;;;;;24.30;10.70;;;;;;;10.71;59.08;101547.00;4952346;28;100173;-90
2024/02/29 00:43:32;;;;;;;26.63;12.35;;;;;;;10.72;59.39;101543.56;4952912;28;100253;-90
2024/02/29 00:45:58;;;;;;;25.30;12.18;;;;;;;10.75;59.34;101535.81;4933730;28;96940;-90
2024/02/29 00:48:23;;;;;;;26.27;11.18;;;;;;;10.76;59.28;101534.09;4968725;28;97036;-90
2024/02/29 00:50:49;;;;;;;25.98;11.95;;;;;;;10.78;59.11;101532.38;4945765;28;100398;-90
2024/02/29 00:53:14;;;;;;;26.13;12.43;;;;;;;10.78;59.39;101538.47;4953716;28;97742;-89
2024/02/29 00:55:40;;;;;;;24.02;10.73;;;;;;;10.80;59.25;101520.25;4949343;28;96786;-89
2024/02/29 00:58:05;;;;;;;27.55;12.82;;;;;;;10.81;59.07;101524.63;4949098;28;96927;-89
2024/02/29 01:00:31;;;;;;;23.27;11.02;;;;;;;10.81;59.38;101520.28;4952481;28;99951;-90
2024/02/29 01:02:57;;;;;;;23.65;11.18;;;;;;;10.82;59.14;101509.00;4949911;28;100605;-90
2024/02/29 01:05:22;;;;;;;24.90;11.85;;;;;;;10.83;59.25;101512.50;4936267;28;96772;-89
2024/02/29 01:07:47;;;;;;;23.35;11.57;;;;;;;10.85;58.88;101498.66;4953206;28;96938;-90
2024/02/29 01:10:19;;;;;;;22.65;12.07;;;;;;;10.84;59.04;101494.28;4950610;28;98070;-89
2024/02/29 01:12:44;;;;;;;23.92;10.73;;;;;;;10.85;59.04;101496.03;4947588;28;97848;-89
2024/02/29 01:15:15;;;;;;;25.10;10.68;;;;;;;10.87;59.07;101490.81;4952336;28;96890;-89
2024/02/29 01:17:45;;;;;;;25.95;11.07;;;;;;;10.87;58.91;101493.44;4954820;28;96972;-89
2024/02/29 01:20:10;;;;;;;24.83;10.70;;;;;;;10.86;58.91;101489.09;4967259;28;100567;-89
2024/02/29 01:22:36;;;;;;;22.25;10.65;;;;;;;10.85;59.07;101495.13;4969911;28;97424;-89
2024/02/29 01:25:02;;;;;;;22.58;9.98;;;;;;;10.85;58.86;101483.00;4957639;28;96921;-89
2024/02/29 01:27:28;;;;;;;26.30;12.15;;;;;;;10.85;58.81;101472.56;4946617;28;96854;-89
2024/02/29 01:29:54;;;;;;;22.45;10.55;;;;;;;10.84;58.83;101462.94;4962766;28;97664;-89
2024/02/29 01:32:19;;;;;;;22.38;9.73;;;;;;;10.85;58.86;101474.25;4925143;28;100859;-89
2024/02/29 01:34:48;;;;;;;22.67;10.98;;;;;;;10.84;58.86;101462.94;4934066;28;97243;-89
2024/02/29 01:37:14;;;;;;;26.08;11.50;;;;;;;10.83;58.85;101463.78;4953008;28;96922;-89
2024/02/29 01:39:47;;;;;;;24.00;10.38;;;;;;;10.84;58.77;101462.94;4939133;28;100590;-89
2024/02/29 01:42:16;;;;;;;26.50;10.40;;;;;;;10.85;58.84;101459.50;4950569;28;100573;-89
2024/02/29 01:44:54;;;;;;;23.05;11.07;;;;;;;10.85;58.88;101458.59;4945094;28;96789;-89
2024/02/29 01:47:24;;;;;;;22.60;10.00;;;;;;;10.84;58.82;101449.91;4947009;28;96862;-89
2024/02/29 01:49:58;;;;;;;24.17;11.70;;;;;;;10.85;58.83;101445.56;4934735;28;100229;-89
2024/02/29 01:52:26;;;;;;;23.67;10.88;;;;;;;10.87;58.67;101441.25;4951918;28;100304;-89
2024/02/29 01:54:52;;;;;;;23.67;11.18;;;;;;;10.86;58.83;101439.50;4950385;28;96913;-89
2024/02/29 01:57:18;;;;;;;24.60;11.02;;;;;;;10.86;58.83;101444.72;4946439;28;96906;-89
2024/02/29 01:59:49;;;;;;;23.95;11.90;;;;;;;10.88;59.08;101435.19;4933160;28;100189;-89
2024/02/29 02:02:14;;;;;;;23.48;11.10;;;;;;;10.90;58.98;101428.25;4943625;28;101653;-89
2024/02/29 02:04:40;;;;;;;24.42;10.77;;;;;;;10.91;58.94;101418.69;4938644;28;96864;-89
2024/02/29 02:07:07;;;;;;;25.08;10.30;;;;;;;10.92;58.79;101410.03;4951715;28;96898;-90
2024/02/29 02:09:34;;;;;;;22.80;10.98;;;;;;;10.93;58.95;101417.03;4927959;28;99987;-89
2024/02/29 02:12:00;;;;;;;22.85;11.20;;;;;;;10.93;58.85;101419.63;4936872;28;100175;-89
2024/02/29 02:14:26;;;;;;;26.25;10.95;;;;;;;10.94;58.79;101410.94;4952504;28;96701;-89
2024/02/29 02:16:51;;;;;;;23.92;10.10;;;;;;;10.93;59.00;101410.06;4933309;28;96822;-89
2024/02/29 02:19:17;;;;;;;24.23;10.50;;;;;;;10.95;59.06;101402.28;4955962;28;100500;-95
2024/02/29 02:21:43;;;;;;;22.10;10.18;;;;;;;10.98;58.69;101394.47;4931370;28;100709;-94
2024/02/29 02:24:09;;;;;;;23.52;10.93;;;;;;;10.99;59.01;101393.63;4958142;28;96603;-94
2024/02/29 02:26:35;;;;;;;25.55;11.13;;;;;;;11.00;58.71;101392.81;4960588;28;96644;-94
2024/02/29 02:29:03;;;;;;;23.27;10.82;;;;;;;11.00;58.83;101391.06;4955514;28;98757;-95
2024/02/29 02:31:29;;;;;;;25.42;11.23;;;;;;;11.01;58.89;101382.38;4972507;28;100004;-95
2024/02/29 02:33:55;;;;;;;24.65;10.55;;;;;;;11.03;58.75;101377.19;4940051;28;96901;-95
2024/02/29 02:36:21;;;;;;;23.05;10.88;;;;;;;11.03;58.88;101380.69;4955199;28;96969;-94
2024/02/29 02:38:49;;;;;;;23.38;11.23;;;;;;;11.03;58.84;101375.47;4942083;28;100323;-94
2024/02/29 02:41:14;;;;;;;22.98;11.25;;;;;;;11.06;58.81;101369.41;4962696;28;97804;-94
2024/02/29 02:43:40;;;;;;;21.80;10.60;;;;;;;11.07;59.01;101367.66;4955793;28;96749;-94
2024/02/29 02:46:06;;;;;;;23.33;10.02;;;;;;;11.08;59.02;101367.69;4940612;28;96864;-95
2024/02/29 02:48:31;;;;;;;24.17;12.00;;;;;;;11.11;58.81;101359.06;4939047;28;100522;-94
2024/02/29 02:50:57;;;;;;;21.42;11.55;;;;;;;11.10;58.82;101352.06;4955075;28;99463;-95
2024/02/29 02:53:22;;;;;;;23.10;9.82;;;;;;;11.13;58.95;101353.00;4973751;28;96789;-94
2024/02/29 02:55:48;;;;;;;24.10;10.60;;;;;;;11.12;58.99;101353.84;4975932;28;96808;-94
2024/02/29 02:58:19;;;;;;;24.05;10.50;;;;;;;11.15;59.00;101345.22;4955780;28;100020;-94
2024/02/29 03:00:45;;;;;;;24.38;10.43;;;;;;;11.17;58.92;101344.38;4942705;28;98876;-95
2024/02/29 03:03:10;;;;;;;25.13;11.88;;;;;;;11.20;59.13;101346.19;4960076;28;98192;-95
2024/02/29 03:05:43;;;;;;;24.42;11.45;;;;;;;11.22;58.91;101337.50;4959803;28;97029;-96
2024/02/29 03:08:09;;;;;;;21.85;9.95;;;;;;;11.23;59.06;101331.44;4964441;28;100797;-95
2024/02/29 03:10:34;;;;;;;23.17;9.85;;;;;;;11.21;59.06;101325.31;4943612;28;99920;-95
2024/02/29 03:13:00;;;;;;;25.42;11.25;;;;;;;11.22;58.89;101329.66;4944001;28;96762;-94
2024/02/29 03:15:26;;;;;;;23.98;11.30;;;;;;;11.26;59.09;101322.78;4959198;28;96731;-95
2024/02/29 03:17:55;;;;;;;25.95;11.18;;;;;;;11.29;59.33;101322.81;4977158;28;99693;-95
2024/02/29 03:20:22;;;;;;;26.42;9.52;;;;;;;11.29;59.09;101327.19;4956561;28;97702;-95
2024/02/29 03:22:47;;;;;;;25.27;10.25;;;;;;;11.29;59.35;101321.97;4975200;28;96772;-95
2024/02/29 03:25:19;;;;;;;27.48;12.07;;;;;;;11.26;59.30;101317.53;4959374;28;97057;-94
2024/02/29 03:27:46;;;;;;;23.27;9.32;;;;;;;11.20;59.43;101307.88;4960002;28;99388;-94
2024/02/29 03:30:15;;;;;;;24.95;10.05;;;;;;;11.16;59.44;101307.81;4960695;28;99751;-94
2024/02/29 03:32:40;;;;;;;22.98;10.52;;;;;;;11.11;59.54;101294.66;4971133;28;96862;-95
2024/02/29 03:35:06;;;;;;;24.25;10.27;;;;;;;11.09;59.84;101304.22;4962573;28;96667;-94
2024/02/29 03:37:31;;;;;;;28.90;12.13;;;;;;;11.03;59.78;101302.38;4942919;28;99545;-94
2024/02/29 03:39:57;;;;;;;22.52;10.25;;;;;;;11.00;59.90;101301.44;4942095;28;100124;-95
2024/02/29 03:42:22;;;;;;;25.13;11.40;;;;;;;10.96;60.17;101292.69;4966927;28;96707;-94
2024/02/29 03:44:48;;;;;;;24.88;9.90;;;;;;;10.95;60.05;101287.44;4951191;28;97075;-94
2024/02/29 03:47:14;;;;;;;24.77;10.95;;;;;;;10.94;60.25;101285.66;4961498;28;99768;-93
2024/02/29 03:49:40;;;;;;;27.98;11.13;;;;;;;10.92;60.22;101297.81;4957959;28;99801;-95
2024/02/29 03:52:05;;;;;;;24.05;10.05;;;;;;;10.89;60.45;101284.69;4977535;28;96668;-94
2024/02/29 03:54:31;;;;;;;27.15;10.70;;;;;;;10.88;60.51;101290.78;4962450;28;96909;-94
2024/02/29 03:56:56;;;;;;;27.95;11.00;;;;;;;10.84;60.68;101285.50;4942935;28;100287;-95
2024/02/29 03:59:22;;;;;;;22.73;10.32;;;;;;;10.81;60.82;101285.44;4961077;28;99906;-94
2024/02/29 04:01:50;;;;;;;26.77;12.07;;;;;;;10.80;61.01;101280.16;4954209;28;96769;-94
2024/02/29 04:04:17;;;;;;;25.15;11.90;;;;;;;10.77;61.10;101286.22;4939560;28;96963;-94
2024/02/29 04:06:46;;;;;;;27.55;11.25;;;;;;;10.74;61.22;101280.94;4955408;28;99940;-95
2024/02/29 04:09:12;;;;;;;;;;;;;;;10.71;60.78;101272.19;4961719;28;96673;-94
2024/02/29 04:11:38;;;;;;;29.73;11.27;;;;;;;10.71;60.99;101273.03;4961669;28;96666;-94
2024/02/29 04:14:04;;;;;;;27.95;11.27;;;;;;;10.67;61.22;101269.50;4962058;28;96711;-94
2024/02/29 04:16:33;;;;;;;26.77;11.70;;;;;;;10.66;61.06;101270.38;4959700;28;100337;-94
2024/02/29 04:18:59;;;;;;;;;;;;;;;10.63;60.98;101261.59;4972443;28;99796;-95
2024/02/29 04:21:25;;;;;;;26.05;11.50;;;;;;;10.64;61.39;101263.34;4953210;28;96848;-95
2024/02/29 04:23:50;;;;;;;28.13;12.10;;;;;;;10.62;61.43;101259.84;4950795;28;96953;-95
2024/02/29 04:26:19;;;;;;;33.30;13.20;;;;;;;10.59;61.42;101254.59;4956994;28;100394;-95
2024/02/29 04:28:45;;;;;;;;;;;;;;;10.54;61.32;101251.88;4933256;28;97616;-95
2024/02/29 04:31:10;;;;;;;27.08;11.15;;;;;;;10.54;61.27;101251.00;4944267;28;96670;-96
2024/02/29 04:33:36;;;;;;;28.65;13.10;;;;;;;10.52;61.63;101255.31;4957904;28;96963;-95
2024/02/29 04:36:02;;;;;;;30.55;12.90;;;;;;;10.47;61.71;101245.66;4957483;28;100548;-94
2024/02/29 04:38:27;;;;;;;28.27;11.18;;;;;;;10.46;61.89;101243.91;4958513;28;96823;-94
2024/02/29 04:40:54;;;;;;;30.75;11.75;;;;;;;10.47;61.98;101237.81;4942686;28;96721;-95
2024/02/29 04:43:21;;;;;;;29.30;13.10;;;;;;;10.45;61.80;101242.16;4941792;28;96978;-95
2024/02/29 04:45:50;;;;;;;32.10;13.55;;;;;;;10.46;62.19;101227.38;4955231;28;98085;-95
2024/02/29 04:48:15;;;;;;;31.48;12.88;;;;;;;10.46;62.11;101227.38;4956538;28;99398;-94
2024/02/29 04:50:41;;;;;;;33.35;12.70;;;;;;;10.42;62.25;101220.34;4940107;28;96795;-95
2024/02/29 04:53:06;;;;;;;29.70;12.10;;;;;;;10.43;62.25;101225.59;4941140;28;96977;-94
2024/02/29 04:55:34;;;;;;;27.35;12.85;;;;;;;10.43;62.19;101227.31;4954773;28;99727;-95
2024/02/29 04:58:00;;;;;;;29.35;11.90;;;;;;;10.43;62.46;101225.59;4979997;28;100217;-95
2024/02/29 05:00:25;;;;;;;29.33;13.65;;;;;;;10.45;62.55;101221.28;4959338;28;96772;-95
2024/02/29 05:02:50;;;;;;;27.20;12.70;;;;;;;10.47;62.27;101213.50;4960556;28;96784;-96
2024/02/29 05:05:19;;;;;;;28.38;11.50;;;;;;;10.49;62.43;101209.16;4950557;28;99266;-94
2024/02/29 05:07:47;;;;;;;32.25;14.32;;;;;;;10.51;62.58;101210.06;4980221;28;98270;-95
2024/02/29 05:10:16;;;;;;;31.92;13.57;;;;;;;10.51;62.47;101206.59;4958985;28;96867;-94
2024/02/29 05:12:41;;;;;;;28.88;12.82;;;;;;;10.50;62.56;101205.72;4946996;28;96900;-94
2024/02/29 05:15:07;;;;;;;31.02;12.32;;;;;;;10.50;62.47;101202.22;4959857;28;98841;-95
2024/02/29 05:17:33;;;;;;;30.27;13.40;;;;;;;10.52;62.63;101203.16;4945232;28;96719;-95
2024/02/29 05:19:59;;;;;;;27.55;12.45;;;;;;;10.52;62.62;101203.16;4937924;28;96790;-95
2024/02/29 05:22:24;;;;;;;27.48;12.50;;;;;;;10.53;62.84;101197.94;4956923;28;96988;-95
2024/02/29 05:24:50;;;;;;;31.10;12.35;;;;;;;10.56;62.76;101197.13;4956576;28;97937;-95
2024/02/29 05:27:15;;;;;;;30.10;12.50;;;;;;;10.55;62.61;101191.03;4946794;28;100482;-95
2024/02/29 05:29:41;;;;;;;28.98;12.35;;;;;;;10.55;62.61;101193.66;4958193;28;96810;-95
2024/02/29 05:32:07;;;;;;;27.45;12.23;;;;;;;10.57;62.72;101185.84;4958594;28;96822;-95
2024/02/29 05:34:33;;;;;;;25.95;13.10;;;;;;;10.59;62.69;101186.75;4942210;28;98659;-95
2024/02/29 05:36:59;;;;;;;28.90;12.65;;;;;;;10.60;62.84;101186.75;4938768;28;98625;-95
2024/02/29 05:39:26;;;;;;;32.55;14.35;;;;;;;10.64;62.81;101195.53;4955878;28;96772;-95
2024/02/29 05:41:55;;;;;;;28.75;13.38;;;;;;;10.64;62.71;101185.09;4964505;28;96770;-94
2024/02/29 05:44:22;;;;;;;29.90;12.07;;;;;;;10.65;62.66;101174.69;4957811;28;99548;-94
2024/02/29 05:46:47;;;;;;;30.42;13.85;;;;;;;10.67;62.74;101174.72;4960138;28;100614;-96
2024/02/29 05:49:15;;;;;;;27.85;11.48;;;;;;;10.68;62.67;101168.66;4954097;28;96753;-95
2024/02/29 05:51:44;;;;;;;26.83;12.27;;;;;;;10.71;62.74;101165.22;4948686;28;96800;-93
2024/02/29 05:54:09;;;;;;;29.85;13.45;;;;;;;10.70;62.76;101172.16;4949171;28;100371;-94
2024/02/29 05:56:36;;;;;;;28.58;11.43;;;;;;;10.73;62.61;101163.50;4949883;28;98502;-94
2024/02/29 05:59:01;;;;;;;27.10;11.30;;;;;;;10.73;62.73;101169.63;4952013;28;96841;-93
2024/02/29 06:01:27;;;;;;;29.08;12.15;;;;;;;10.75;62.87;101170.53;4952202;28;96870;-94
2024/02/29 06:03:52;;;;;;;31.48;12.07;;;;;;;10.76;62.84;101167.03;4950212;28;100345;-95
2024/02/29 06:06:18;;;;;;;27.45;12.27;;;;;;;10.78;62.72;101156.63;4935751;28;100227;-95
2024/02/29 06:08:53;;;;;;;25.77;11.77;;;;;;;10.79;62.96;101161.00;4954401;28;96793;-94
2024/02/29 06:11:19;;;;;;;28.67;13.38;;;;;;;10.80;63.00;101161.03;4940069;28;96842;-95
2024/02/29 06:13:44;;;;;;;30.25;12.85;;;;;;;10.79;62.99;101161.88;4958746;28;98819;-96
2024/02/29 06:16:13;;;;;;;26.60;13.10;;;;;;;10.81;63.05;101162.78;4950412;28;98335;-95
2024/02/29 06:18:45;;;;;;;26.40;11.98;;;;;;;10.81;63.03;101160.16;4931887;28;96833;-94
2024/02/29 06:21:11;;;;;;;29.98;11.75;;;;;;;10.83;62.97;101157.59;4957579;28;96707;-94
2024/02/29 06:23:50;;;;;;;27.52;11.63;;;;;;;10.87;63.26;101167.22;4947767;28;97698;-94
2024/02/29 06:26:15;;;;;;;25.83;11.30;;;;;;;10.87;63.14;101167.22;4948910;28;99092;-93
2024/02/29 06:28:41;;;;;;;28.83;12.82;;;;;;;10.90;63.00;101161.19;4934585;28;96787;-95
2024/02/29 06:31:10;;;;;;;26.02;12.90;;;;;;;10.92;63.26;101156.88;4979280;28;96902;-95
2024/02/29 06:33:38;;;;;;;30.23;12.85;;;;;;;10.93;62.94;101161.25;4959983;28;97813;-96
2024/02/29 06:36:04;;;;;;;31.13;12.65;;;;;;;10.95;63.24;101157.78;4955590;28;98558;-94
2024/02/29 06:38:30;;;;;;;29.20;12.63;;;;;;;10.98;63.16;101162.16;4963743;28;96584;-94
2024/02/29 06:40:55;;;;;;;27.25;12.25;;;;;;;10.99;63.17;101162.19;4939294;28;96828;-94
2024/02/29 06:43:21;;;;;;;30.60;12.38;;;;;;;11.00;63.24;101155.28;4947862;28;100111;-93
2024/02/29 06:45:50;;;;;;;28.33;11.63;;;;;;;11.02;63.14;101156.16;4970157;28;98845;-94
2024/02/29 06:48:17;;;;;;;29.25;13.10;;;;;;;11.03;63.23;101147.47;4949600;28;96744;-94
2024/02/29 06:50:53;;;;;;;26.17;10.77;;;;;;;11.05;63.21;101157.09;4950978;28;96542;-94
2024/02/29 06:53:18;;;;;;;25.65;11.25;;;;;;;11.06;63.14;101147.53;4958538;28;99604;-94
2024/02/29 06:55:44;;;;;;;22.38;10.57;;;;;;;11.07;63.28;101141.47;4956256;28;99729;-94
2024/02/29 06:58:10;;;;;;;26.50;11.48;;;;;;;11.11;63.45;101147.59;4946804;28;96822;-94
2024/02/29 07:00:45;;;;;;;22.70;10.77;;;;;;;11.11;63.18;101145.84;4951616;28;96825;-94
2024/02/29 07:03:10;;;;;;;27.35;12.07;;;;;;;11.15;63.29;101141.56;4946090;28;100718;-93
2024/02/29 07:05:36;;;;;;;24.95;10.55;;;;;;;11.15;63.29;101131.13;4962703;28;99677;-93
2024/02/29 07:08:02;;;;;;;24.95;11.60;;;;;;;11.18;63.13;101126.81;4963282;28;96638;-94
2024/02/29 07:10:27;;;;;;;23.30;11.18;;;;;;;11.20;63.15;101137.28;4963159;28;96757;-94
2024/02/29 07:12:53;;;;;;;20.92;9.65;;;;;;;11.21;63.05;101137.31;4949440;28;99237;-94
2024/02/29 07:15:19;;;;;;;24.40;10.02;;;;;;;11.22;63.27;101133.84;4934275;28;98646;-94
2024/02/29 07:17:45;;;;;;;23.83;10.32;;;;;;;11.23;63.16;101133.00;4960478;28;96862;-93
2024/02/29 07:20:13;;;;;;;20.13;9.32;;;;;;;11.28;63.13;101137.38;4963581;28;96823;-95
2024/02/29 07:22:40;;;;;;;20.75;10.77;;;;;;;11.29;63.17;101133.94;4960795;28;99254;-94
2024/02/29 07:25:07;;;;;;;24.02;11.13;;;;;;;11.30;63.01;101123.53;4961740;28;100440;-94
2024/02/29 07:27:35;;;;;;;24.13;11.50;;;;;;;11.33;63.16;101122.66;4954787;28;96758;-93
2024/02/29 07:30:02;;;;;;;22.73;10.75;;;;;;;11.32;63.16;101115.69;4940214;28;96886;-92
2024/02/29 07:32:28;;;;;;;23.08;11.13;;;;;;;11.34;62.93;101119.22;4957609;28;100302;-94
2024/02/29 07:34:53;;;;;;;24.00;11.13;;;;;;;11.33;63.19;101120.06;4956463;28;99136;-93
2024/02/29 07:37:19;;;;;;;21.17;10.27;;;;;;;11.33;63.38;101120.91;4952368;28;96820;-93
2024/02/29 07:41:18;;;;;;;20.00;9.15;;;;;;;11.37;63.05;101114.00;5017681;28;96704;-95
2024/02/29 07:43:44;;;;;;;21.88;10.07;;;;;;;11.38;63.03;101113.16;5004969;28;96784;-94
2024/02/29 07:46:09;;;;;;;20.05;10.00;;;;;;;11.39;63.08;101115.81;5024515;28;99985;-94
2024/02/29 07:48:35;;;;;;;24.60;11.05;;;;;;;11.39;63.27;101110.56;5002800;28;98279;-95
2024/02/29 07:51:01;;;;;;;25.25;10.93;;;;;;;11.41;63.23;101114.09;4998081;28;96767;-94
2024/02/29 07:53:26;;;;;;;20.30;9.57;;;;;;;11.43;62.94;101111.50;4992477;28;96681;-94
2024/02/29 07:55:52;;;;;;;21.55;10.77;;;;;;;11.44;63.01;101110.63;4995436;28;100665;-95
2024/02/29 07:58:18;;;;;;;28.05;10.63;;;;;;;11.45;63.06;101109.78;4992641;28;96731;-93
2024/02/29 08:00:44;;;;;;;25.83;10.38;;;;;;;11.45;63.19;101112.38;5010644;28;96842;-94
2024/02/29 08:03:09;;;;;;;23.05;10.98;;;;;;;11.45;63.31;101104.56;4992769;28;96822;-95
2024/02/29 08:05:35;;;;;;;24.00;10.73;;;;;;;11.46;63.28;101101.09;5018069;28;100157;-94
2024/02/29 08:08:00;;;;;;;24.17;10.98;;;;;;;11.47;63.35;101097.59;5003933;28;99018;-93
2024/02/29 08:10:26;;;;;;;21.15;8.80;;;;;;;11.48;63.17;101095.88;5014964;28;96835;-95
2024/02/29 08:12:51;;;;;;;22.20;10.68;;;;;;;11.48;63.33;101094.16;5006406;28;96976;-93
2024/02/29 08:15:17;;;;;;;34.35;12.23;;;;;;;11.47;63.10;101089.78;5013244;28;100079;-94
2024/02/29 08:17:42;;;;;;;19.17;9.50;;;;;;;11.46;63.26;101095.88;4988048;28;100352;-93
2024/02/29 08:20:10;;;;;;;21.08;10.23;;;;;;;11.48;63.31;101094.16;4984332;28;96828;-96
2024/02/29 08:22:56;;;;;;;22.38;10.57;;;;;;;11.50;63.40;101087.22;4994865;28;96752;-92
2024/02/29 08:25:23;;;;;;;23.52;10.43;;;;;;;11.52;63.45;101087.22;4972536;28;100229;-92
2024/02/29 08:27:50;;;;;;;20.00;9.18;;;;;;;11.52;63.29;101079.41;4989054;28;99735;-94
2024/02/29 08:30:16;;;;;;;25.85;9.73;;;;;;;11.50;63.34;101081.97;5008288;28;96950;-94
2024/02/29 08:32:42;;;;;;;22.88;10.50;;;;;;;11.52;63.67;101084.63;4978410;28;97085;-93
2024/02/29 08:35:07;;;;;;;23.75;10.48;;;;;;;11.54;63.45;101083.78;5004766;28;99494;-93
2024/02/29 08:37:34;;;;;;;21.13;9.98;;;;;;;11.55;63.60;101082.91;4991520;28;100577;-93
2024/02/29 08:39:59;;;;;;;25.25;10.77;;;;;;;11.57;63.48;101086.44;4973772;28;97005;-95
2024/02/29 08:42:25;;;;;;;22.67;10.15;;;;;;;11.58;63.69;101077.72;5021185;28;96877;-93
2024/02/29 08:44:51;;;;;;;22.80;11.27;;;;;;;11.60;63.54;101076.03;4967448;28;100818;-93
2024/02/29 08:47:17;;;;;;;18.55;9.27;;;;;;;11.62;63.54;101076.91;4974455;28;100196;-93
2024/02/29 08:49:42;;;;;;;22.92;11.55;;;;;;;11.65;63.58;101076.06;4998220;28;97026;-95
2024/02/29 08:52:08;;;;;;;21.88;9.40;;;;;;;11.67;63.64;101082.16;4976115;28;96884;-94
2024/02/29 08:54:34;;;;;;;21.00;9.52;;;;;;;11.67;63.50;101071.72;4994704;28;100155;-94
2024/02/29 08:57:03;;;;;;;19.05;10.75;;;;;;;11.67;63.46;101082.16;4991160;28;96771;-94
2024/02/29 08:59:29;;;;;;;21.45;9.90;;;;;;;11.66;63.34;101080.44;4979288;28;96985;-94
2024/02/29 09:01:55;;;;;;;19.45;9.93;;;;;;;11.67;63.61;101079.56;4990594;28;96915;-94
2024/02/29 09:04:20;;;;;;;22.35;10.68;;;;;;;11.69;63.53;101082.19;4992468;28;100215;-94
2024/02/29 09:06:46;;;;;;;21.73;11.02;;;;;;;11.70;63.53;101078.75;4984005;28;99383;-94
2024/02/29 09:09:12;;;;;;;22.77;10.68;;;;;;;11.70;63.37;101077.00;4990629;28;96729;-94
2024/02/29 09:11:38;;;;;;;20.55;10.07;;;;;;;11.67;63.50;101078.69;4987028;28;96847;-94
2024/02/29 09:14:04;;;;;;;21.85;10.00;;;;;;;11.67;63.82;101068.25;4974575;28;99221;-94
2024/02/29 09:16:29;;;;;;;24.63;10.50;;;;;;;11.69;63.66;101079.59;4992703;28;100393;-94
2024/02/29 09:18:56;;;;;;;24.92;10.30;;;;;;;11.70;63.62;101076.13;4982984;28;96825;-96
2024/02/29 09:21:22;;;;;;;23.75;11.48;;;;;;;11.69;63.77;101070.00;4986862;28;96873;-94
2024/02/29 09:23:50;;;;;;;25.90;10.13;;;;;;;11.68;63.83;101068.25;4976606;28;99763;-95
2024/02/29 09:26:18;;;;;;;21.83;9.50;;;;;;;11.66;63.90;101059.53;4995337;28;100007;-95
2024/02/29 09:28:47;;;;;;;21.38;10.07;;;;;;;11.66;63.90;101058.63;4981357;28;96738;-94
2024/02/29 09:31:13;;;;;;;21.17;10.23;;;;;;;11.66;64.06;101063.88;4983430;28;96861;-94
2024/02/29 09:33:39;;;;;;;21.63;11.63;;;;;;;11.65;63.91;101054.28;4983541;28;100482;-93
2024/02/29 09:36:10;;;;;;;23.55;9.48;;;;;;;11.63;63.98;101052.53;5016450;28;99182;-96
2024/02/29 09:38:36;;;;;;;22.73;10.80;;;;;;;11.64;64.04;101053.41;4974528;28;96719;-95
2024/02/29 09:41:04;;;;;;;24.48;12.10;;;;;;;11.63;64.39;101051.66;4980604;28;96770;-95
2024/02/29 09:43:30;;;;;;;22.95;10.88;;;;;;;11.60;64.30;101044.66;4977711;28;100491;-94
2024/02/29 09:45:59;;;;;;;26.38;10.55;;;;;;;11.60;64.18;101047.28;4984445;28;100569;-94
2024/02/29 09:48:25;;;;;;;23.65;10.55;;;;;;;11.60;64.46;101041.16;4980034;28;96821;-93
2024/02/29 09:50:51;;;;;;;22.50;9.13;;;;;;;11.60;64.23;101036.84;5010066;28;96779;-94
2024/02/29 09:53:19;;;;;;;26.40;11.23;;;;;;;11.61;64.65;101035.09;4993325;28;100838;-95
2024/02/29 09:55:59;;;;;;;25.98;11.15;;;;;;;11.60;64.43;101035.94;4995662;28;100545;-94
2024/02/29 09:58:26;;;;;;;23.55;10.00;;;;;;;11.61;64.63;101041.19;4986696;28;96883;-94
2024/02/29 10:00:52;;;;;;;23.67;10.10;;;;;;;11.60;64.53;101042.06;4974375;28;96999;-94
2024/02/29 10:03:17;;;;;;;23.70;11.98;;;;;;;11.60;64.56;101033.31;4999214;28;99236;-94
2024/02/29 10:05:46;;;;;;;22.48;10.65;;;;;;;11.63;64.84;101041.19;5000246;28;98336;-93
2024/02/29 10:08:12;;;;;;;22.50;10.43;;;;;;;11.65;64.79;101038.63;4968723;28;96680;-94
2024/02/29 10:10:38;;;;;;;25.75;10.10;;;;;;;11.68;64.73;101034.28;4986531;28;96923;-94
2024/02/29 10:13:06;;;;;;;26.77;11.52;;;;;;;11.71;64.79;101031.72;5000366;28;100239;-96
2024/02/29 10:15:33;;;;;;;23.23;10.82;;;;;;;11.75;64.78;101028.28;5003938;28;98643;-94
2024/02/29 10:17:59;;;;;;;24.67;9.68;;;;;;;11.76;64.70;101018.69;5000684;28;96863;-95
2024/02/29 10:20:25;;;;;;;23.17;11.10;;;;;;;11.76;64.95;101027.44;4995529;28;96956;-95
2024/02/29 10:22:54;;;;;;;21.10;10.95;;;;;;;11.82;64.85;101021.38;5003100;28;98953;-95
2024/02/29 10:25:21;;;;;;;24.98;11.05;;;;;;;11.86;64.83;101010.09;5008316;28;99420;-95
2024/02/29 10:27:47;;;;;;;24.67;10.77;;;;;;;11.85;64.84;101015.28;5005735;28;96814;-95
2024/02/29 10:30:14;;;;;;;23.95;10.63;;;;;;;11.87;64.68;101008.34;5005770;28;96850;-95
2024/02/29 10:32:44;;;;;;;24.20;10.18;;;;;;;11.86;64.98;101015.31;5005114;28;99329;-96
2024/02/29 10:35:26;;;;;;;21.00;10.10;;;;;;;11.90;64.96;101014.50;4998429;28;100283;-95
2024/02/29 10:37:55;;;;;;;21.50;10.10;;;;;;;11.93;64.85;101008.44;4985659;28;96646;-95
2024/02/29 10:40:21;;;;;;;19.65;10.13;;;;;;;11.96;64.74;101000.63;4985361;28;96586;-95
2024/02/29 10:42:55;;;;;;;24.15;10.35;;;;;;;11.98;64.87;101005.00;4985736;28;98982;-95
2024/02/29 10:45:32;;;;;;;24.20;11.23;;;;;;;12.00;64.92;100997.19;4985344;28;100478;-95
2024/02/29 10:48:00;;;;;;;23.30;10.85;;;;;;;12.02;64.91;100994.59;4986442;28;96794;-95
2024/02/29 10:50:26;;;;;;;18.73;9.23;;;;;;;12.03;64.84;100993.72;4987907;28;96633;-96
2024/02/29 10:53:07;;;;;;;30.58;12.07;;;;;;;12.02;65.04;100995.47;5003436;28;98075;-96
2024/02/29 10:55:42;;;;;;;18.75;8.50;;;;;;;12.05;64.97;100999.81;5002726;28;99645;-94
2024/02/29 10:58:21;;;;;;;23.48;11.07;;;;;;;12.07;64.86;101001.59;4985860;28;96621;-95
2024/02/29 11:00:47;;;;;;;20.40;8.98;;;;;;;12.11;64.84;100992.06;5001509;28;96468;-96
2024/02/29 11:03:13;;;;;;;24.58;10.90;;;;;;;12.12;64.92;100986.84;4984771;28;97679;-95
2024/02/29 11:05:40;;;;;;;20.63;9.13;;;;;;;12.13;64.77;100988.56;4983231;28;98100;-94
2024/02/29 11:08:06;;;;;;;19.38;10.05;;;;;;;12.14;64.92;100985.13;4985681;28;96574;-95
2024/02/29 11:10:31;;;;;;;21.73;10.32;;;;;;;12.15;65.02;100986.84;4986520;28;96977;-95